North Chili, NY (14514)

1:43 PM EST on December 05, 2016 (GMT -0500)
Chili | | Change Station

Elev 584 ft 43.11 °N, 77.77 °W | Updated 14 seconds ago

Partly Cloudy
Partly Cloudy
42.5 °F
Feels Like 40 °F
N
4.0
Wind Variable Wind from WSW

Today
High -- | Low -- °F
--% Chance of Precip.
Yesterday
High -- | Low -- °F
Precip. -- in
Pressure 29.96 in
Visibility 10.0 miles
Clouds Few 3700 ft
Few 4500 ft
Windchill 40 °F
Dew Point 32 °F
Humidity 65%
Rainfall 0.00 in
Snow Depth Not available.
7:27 AM 4:36 PM
Waxing Crescent, 34% visible
METAR KROC 051754Z 26019G25KT 10SM FEW037 FEW045 06/M01 A2993 RMK AO2 PK WND 27027/1655 SLP144 60001 T00561006 10056 20022 51007
Pressure 29.96 in
Visibility 10.0 miles
Clouds Few 3700 ft
Few 4500 ft
Windchill 40 °F
Dew Point 32 °F
Humidity 65%
Rainfall 0.00 in
Snow Depth Not available.
7:27 AM 4:36 PM
Waxing Crescent, 34% visible
METAR KROC 051754Z 26019G25KT 10SM FEW037 FEW045 06/M01 A2993 RMK AO2 PK WND 27027/1655 SLP144 60001 T00561006 10056 20022 51007

10-Day Weather Forecast

Almanac

Astronomy

Dec. 05, 2016 Rise Set
Actual Time
Civil Twilight
Nautical Twilight
Astronomical Twilight
Moon
Length of Visible Light
Length of Day
Tomorrow will be .
, % of the Moon is Illuminated

Today's Extremes

State Highs State Lows

Community

WunderPhotos

Upload Photos

1,955,851 photos uploaded!

WunderBlog® & News

Nearby

Air Quality

  Air Quality AQ Index Pollutant
Not available.

Snow Depth

Station Depth Elevation

Earthquake Activity

City Distance Mag. Time & Date
Minimum magnitude displayed is 2.5.

Coastal Water Temperatures

Place Temperature

Stations

Nearby Weather Stations

Station Location Temp. Windchill Dew Point Humidity Wind Precip. Elev Updated Type
                   

Watches & Warnings

There are currently no watches in effect.